createdAt,value
2019-01-25T00:01:14.240Z,8.24
2019-01-25T00:03:43.681Z,8.32
2019-01-25T00:06:13.395Z,8.33
2019-01-25T00:08:42.887Z,8.39
2019-01-25T00:11:12.444Z,8.43
2019-01-25T00:13:41.903Z,8.45
2019-01-25T00:16:11.373Z,8.52
2019-01-25T00:18:41.063Z,8.55
2019-01-25T00:21:10.460Z,8.57
2019-01-25T00:23:39.950Z,8.57
2019-01-25T00:26:09.469Z,8.61
2019-01-25T00:28:38.895Z,8.56
2019-01-25T00:31:08.376Z,8.30
2019-01-25T00:33:38.018Z,8.33
2019-01-25T00:36:07.534Z,8.45
2019-01-25T00:38:36.967Z,8.36
2019-01-25T00:41:06.526Z,8.46
2019-01-25T00:43:36.096Z,8.51
2019-01-25T00:46:05.598Z,8.59
2019-01-25T00:48:35.132Z,8.72
2019-01-25T00:51:04.808Z,8.71
2019-01-25T00:53:35.690Z,8.52
2019-01-25T00:56:07.159Z,8.41
2019-01-25T00:58:36.614Z,8.32
2019-01-25T01:01:06.626Z,8.26
2019-01-25T01:03:36.403Z,8.24
2019-01-25T01:06:06.399Z,8.21
2019-01-25T01:08:35.988Z,8.18
2019-01-25T01:11:05.536Z,8.11
2019-01-25T01:13:34.942Z,8.08
2019-01-25T01:16:05.130Z,8.08
2019-01-25T01:18:34.648Z,8.11
2019-01-25T01:21:04.063Z,8.09
2019-01-25T01:23:33.474Z,8.03
2019-01-25T01:26:03.010Z,7.91
2019-01-25T01:28:32.522Z,7.83
2019-01-25T01:31:01.921Z,7.80
2019-01-25T01:33:31.333Z,7.60
2019-01-25T01:36:00.836Z,7.68
2019-01-25T01:38:30.415Z,7.59
2019-01-25T01:40:59.989Z,7.74
2019-01-25T01:43:30.588Z,7.79
2019-01-25T01:46:00.059Z,7.78
2019-01-25T01:48:29.731Z,7.88
2019-01-25T01:50:59.136Z,7.87
2019-01-25T01:53:28.551Z,7.72
2019-01-25T01:55:58.230Z,7.49
2019-01-25T01:58:27.720Z,7.21
2019-01-25T02:00:57.154Z,7.21
2019-01-25T02:03:26.609Z,7.17
2019-01-25T02:05:56.116Z,7.21
2019-01-25T02:08:25.610Z,7.27
2019-01-25T02:10:55.020Z,7.15
2019-01-25T02:13:24.470Z,7.01
2019-01-25T02:15:54.075Z,6.95
2019-01-25T02:18:23.579Z,6.89
2019-01-25T02:20:53.150Z,7.07
2019-01-25T02:23:22.649Z,7.09
2019-01-25T02:25:52.050Z,7.11
2019-01-25T02:28:21.507Z,7.14
2019-01-25T02:30:51.019Z,6.98
2019-01-25T02:33:20.506Z,6.93
2019-01-25T02:35:49.949Z,7.06
2019-01-25T02:38:19.403Z,7.15
2019-01-25T02:40:48.901Z,7.22
2019-01-25T02:43:18.427Z,7.27
2019-01-25T02:45:47.879Z,7.27
2019-01-25T02:48:17.300Z,7.15
2019-01-25T02:50:46.827Z,7.00
2019-01-25T02:53:16.314Z,6.88
2019-01-25T02:55:45.707Z,6.70
2019-01-25T02:58:15.174Z,6.64
2019-01-25T03:00:44.679Z,6.61
2019-01-25T03:03:14.089Z,6.55
2019-01-25T03:05:43.666Z,6.68
2019-01-25T03:08:13.140Z,6.60
2019-01-25T03:10:47.254Z,6.59
2019-01-25T03:13:14.729Z,6.66
2019-01-25T03:15:44.221Z,6.62
2019-01-25T03:18:13.742Z,6.77
2019-01-25T03:20:43.173Z,6.91
2019-01-25T03:23:12.634Z,6.94
2019-01-25T03:25:42.174Z,6.85
2019-01-25T03:28:11.632Z,6.67
2019-01-25T03:30:41.046Z,6.56
2019-01-25T03:33:10.548Z,6.63
2019-01-25T03:35:40.075Z,6.54
2019-01-25T03:38:09.517Z,6.63
2019-01-25T03:40:39.129Z,6.78
2019-01-25T03:43:08.568Z,6.72
2019-01-25T03:45:37.956Z,6.63
2019-01-25T03:48:07.847Z,6.54
2019-01-25T03:50:37.363Z,6.54
2019-01-25T03:53:06.811Z,6.46
2019-01-25T03:55:36.252Z,6.37
2019-01-25T03:58:05.830Z,6.43
2019-01-25T04:00:35.329Z,6.22
2019-01-25T04:03:04.917Z,6.29
2019-01-25T04:05:34.313Z,6.50
2019-01-25T04:08:03.782Z,6.35
2019-01-25T04:10:33.548Z,6.29
2019-01-25T04:13:02.996Z,6.25
2019-01-25T04:15:34.227Z,6.17
2019-01-25T04:18:03.835Z,6.08
2019-01-25T04:20:33.258Z,6.00
2019-01-25T04:23:02.798Z,6.08
2019-01-25T04:25:32.419Z,5.94
2019-01-25T04:28:01.850Z,5.94
2019-01-25T04:30:32.933Z,5.99
2019-01-25T04:33:02.683Z,6.02
2019-01-25T04:35:32.160Z,5.98
2019-01-25T04:38:01.586Z,5.97
2019-01-25T04:40:31.065Z,5.90
2019-01-25T04:43:00.541Z,5.99
2019-01-25T04:45:30.042Z,5.96
2019-01-25T04:47:59.538Z,6.05
2019-01-25T04:50:28.948Z,5.92
2019-01-25T04:52:58.409Z,5.96
2019-01-25T04:55:29.846Z,5.91
2019-01-25T04:58:10.947Z,5.97
2019-01-25T05:00:40.794Z,5.97
2019-01-25T05:03:10.446Z,5.91
2019-01-25T05:05:39.865Z,6.03
2019-01-25T05:08:16.002Z,6.14
2019-01-25T05:10:45.806Z,6.12
2019-01-25T05:13:15.888Z,6.21
2019-01-25T05:15:45.386Z,6.25
2019-01-25T05:18:15.169Z,6.22
2019-01-25T05:20:44.804Z,6.23
2019-01-25T05:23:14.335Z,6.19
2019-01-25T05:25:43.729Z,6.27
2019-01-25T05:28:22.470Z,6.26
2019-01-25T05:31:00.135Z,6.24
2019-01-25T05:33:29.668Z,6.34
2019-01-25T05:35:59.069Z,6.38
2019-01-25T05:38:28.535Z,6.41
2019-01-25T05:40:58.183Z,6.20
2019-01-25T05:43:27.644Z,6.28
2019-01-25T05:45:57.150Z,6.28
2019-01-25T05:48:32.284Z,6.27
2019-01-25T05:51:03.380Z,6.25
2019-01-25T05:53:32.847Z,6.18
2019-01-25T05:56:02.609Z,6.20
2019-01-25T05:58:32.125Z,6.08
2019-01-25T06:01:01.539Z,6.12
2019-01-25T06:03:31.024Z,6.06
2019-01-25T06:06:07.532Z,6.14
2019-01-25T06:08:43.809Z,6.17
2019-01-25T06:11:09.611Z,6.15
2019-01-25T06:13:39.845Z,6.17
2019-01-25T06:16:10.033Z,6.10
2019-01-25T06:18:39.553Z,6.16
2019-01-25T06:21:09.099Z,6.32
2019-01-25T06:23:38.584Z,6.38
2019-01-25T06:26:09.338Z,6.45
2019-01-25T06:28:38.893Z,6.49
2019-01-25T06:31:08.620Z,6.46
2019-01-25T06:33:38.064Z,6.38
2019-01-25T06:36:08.337Z,6.44
2019-01-25T06:38:38.094Z,6.42
2019-01-25T06:41:08.664Z,6.45
2019-01-25T06:43:38.133Z,6.47
2019-01-25T06:46:07.777Z,6.47
2019-01-25T06:48:37.255Z,6.37
2019-01-25T06:51:07.211Z,6.49
2019-01-25T06:53:36.686Z,6.40
2019-01-25T06:56:06.212Z,6.35
2019-01-25T06:59:00.331Z,6.38
2019-01-25T07:01:57.927Z,6.26
2019-01-25T07:04:27.416Z,6.44
2019-01-25T07:06:56.822Z,6.49
2019-01-25T07:09:26.258Z,6.57
2019-01-25T07:11:55.794Z,6.39
2019-01-25T07:14:25.299Z,6.32
2019-01-25T07:16:55.037Z,6.46
2019-01-25T07:19:24.858Z,6.52
2019-01-25T07:21:54.991Z,6.56
2019-01-25T07:24:24.442Z,6.63
2019-01-25T07:26:53.877Z,6.63
2019-01-25T07:29:23.653Z,6.64
2019-01-25T07:31:53.362Z,6.65
2019-01-25T07:34:23.170Z,6.63
2019-01-25T07:36:52.614Z,6.64
2019-01-25T07:39:29.221Z,6.63
2019-01-25T07:42:01.963Z,6.74
2019-01-25T07:44:30.233Z,6.65
2019-01-25T07:46:59.747Z,6.58
2019-01-25T07:49:29.226Z,6.64
2019-01-25T07:51:58.650Z,6.67
2019-01-25T07:54:29.977Z,6.79
2019-01-25T07:56:59.614Z,6.88
2019-01-25T07:59:29.041Z,6.84
2019-01-25T08:01:59.299Z,6.72
2019-01-25T08:04:28.732Z,6.72
2019-01-25T08:06:58.254Z,6.73
2019-01-25T08:09:27.764Z,6.90
2019-01-25T08:11:57.207Z,6.92
2019-01-25T08:14:26.656Z,6.93
2019-01-25T08:16:56.394Z,6.81
2019-01-25T08:19:26.080Z,7.00
2019-01-25T08:21:55.942Z,7.07
2019-01-25T08:24:25.537Z,7.13
2019-01-25T08:26:55.739Z,7.16
2019-01-25T08:29:28.096Z,7.19
2019-01-25T08:31:57.291Z,7.12
2019-01-25T08:34:27.077Z,7.06
2019-01-25T08:36:56.870Z,7.17
2019-01-25T08:39:26.654Z,7.27
2019-01-25T08:41:56.149Z,7.39
2019-01-25T08:44:25.612Z,7.49
2019-01-25T08:46:55.548Z,7.54
2019-01-25T08:49:25.187Z,7.48
2019-01-25T08:51:55.972Z,7.53
2019-01-25T08:54:25.925Z,7.56
2019-01-25T08:56:55.514Z,7.51
2019-01-25T08:59:25.288Z,7.52
2019-01-25T09:01:55.025Z,7.62
2019-01-25T09:04:25.092Z,7.65
2019-01-25T09:06:54.657Z,7.72
2019-01-25T09:09:24.419Z,7.66
2019-01-25T09:11:54.229Z,7.70
2019-01-25T09:14:23.754Z,7.81
2019-01-25T09:16:53.572Z,7.82
2019-01-25T09:19:23.216Z,7.76
2019-01-25T09:21:52.621Z,7.84
2019-01-25T09:24:22.171Z,7.74
2019-01-25T09:26:51.674Z,7.79
2019-01-25T09:29:21.118Z,7.89
2019-01-25T09:31:50.602Z,7.88
2019-01-25T09:34:20.060Z,7.76
2019-01-25T09:36:49.546Z,7.79
2019-01-25T09:39:19.191Z,7.75
2019-01-25T09:41:48.635Z,7.87
2019-01-25T09:44:18.070Z,7.98
2019-01-25T09:46:47.712Z,7.94
2019-01-25T09:49:17.163Z,7.93
2019-01-25T09:51:46.663Z,7.97
2019-01-25T09:54:16.182Z,8.09
2019-01-25T09:56:45.569Z,8.08
2019-01-25T09:59:15.018Z,8.09
2019-01-25T10:01:44.552Z,8.19
2019-01-25T10:04:13.991Z,8.26
2019-01-25T10:06:43.486Z,8.24
2019-01-25T10:09:12.953Z,8.35
2019-01-25T10:11:43.382Z,8.28
2019-01-25T10:14:12.825Z,8.42
2019-01-25T10:16:42.462Z,8.53
2019-01-25T10:19:11.917Z,8.52
2019-01-25T10:21:41.355Z,8.49
2019-01-25T10:24:10.869Z,8.60
2019-01-25T10:26:40.371Z,8.53
2019-01-25T10:29:10.119Z,8.55
2019-01-25T10:31:39.593Z,8.58
2019-01-25T10:34:09.705Z,8.65
2019-01-25T10:36:39.956Z,8.81
2019-01-25T10:42:33.054Z,8.88
2019-01-25T10:45:04.389Z,8.92
2019-01-25T10:47:33.872Z,8.99
2019-01-25T10:50:03.306Z,9.09
2019-01-25T10:52:32.831Z,9.19
2019-01-25T10:55:02.298Z,9.33
2019-01-25T10:57:31.810Z,9.36
2019-01-25T11:00:01.307Z,9.50
2019-01-25T11:02:30.882Z,9.58
2019-01-25T11:05:00.358Z,9.67
2019-01-25T11:07:30.073Z,9.65
2019-01-25T11:09:59.535Z,9.65
2019-01-25T11:12:29.081Z,9.73
2019-01-25T11:14:58.855Z,9.74
2019-01-25T11:18:03.919Z,9.69
2019-01-25T11:20:33.518Z,9.67
2019-01-25T11:23:03.045Z,9.72
2019-01-25T11:25:34.918Z,9.86
2019-01-25T11:28:04.775Z,9.82
2019-01-25T11:30:34.607Z,9.92
2019-01-25T11:33:04.294Z,10.03
2019-01-25T11:35:33.788Z,10.08
2019-01-25T11:38:03.207Z,9.98
2019-01-25T11:40:35.154Z,10.05
2019-01-25T11:43:09.004Z,10.07
2019-01-25T11:45:36.199Z,10.20
2019-01-25T11:48:09.458Z,10.31
2019-01-25T11:50:38.926Z,10.13
2019-01-25T11:53:08.378Z,10.23
2019-01-25T11:55:38.015Z,10.21
2019-01-25T11:58:07.662Z,10.04
2019-01-25T12:00:38.751Z,10.03
2019-01-25T12:03:08.252Z,9.93
2019-01-25T12:05:37.708Z,9.94
2019-01-25T12:08:07.495Z,9.91
2019-01-25T12:10:37.034Z,9.86
2019-01-25T12:13:06.454Z,9.95
2019-01-25T12:15:35.915Z,9.92
2019-01-25T12:18:06.123Z,9.76
2019-01-25T12:20:35.606Z,9.77
2019-01-25T12:23:05.050Z,9.73
2019-01-25T12:25:34.786Z,9.79
2019-01-25T12:28:05.434Z,9.76
2019-01-25T12:30:38.234Z,9.66
2019-01-25T12:33:09.000Z,9.76
2019-01-25T12:35:41.058Z,9.77
2019-01-25T12:38:10.589Z,9.79
2019-01-25T12:40:42.040Z,9.78
2019-01-25T12:43:11.349Z,9.80
2019-01-25T12:45:40.829Z,9.82
2019-01-25T12:48:10.723Z,9.83
2019-01-25T12:51:07.033Z,9.82
2019-01-25T12:53:36.521Z,9.90
2019-01-25T12:56:06.202Z,9.76
2019-01-25T12:58:35.729Z,9.78
2019-01-25T13:01:06.224Z,9.75
2019-01-25T13:03:35.713Z,9.77
2019-01-25T13:06:05.805Z,9.78
2019-01-25T13:08:35.266Z,9.82
2019-01-25T13:11:04.941Z,9.76
2019-01-25T13:13:34.501Z,9.70
2019-01-25T13:16:04.260Z,9.73
2019-01-25T13:18:33.674Z,9.74
2019-01-25T13:21:03.133Z,9.76
2019-01-25T13:23:33.425Z,9.76
2019-01-25T13:26:02.875Z,9.79
2019-01-25T13:28:32.353Z,9.78
2019-01-25T13:31:01.950Z,9.82
2019-01-25T13:33:31.733Z,9.93
2019-01-25T13:36:01.194Z,9.92
2019-01-25T13:38:30.699Z,9.93
2019-01-25T13:41:00.152Z,9.95
2019-01-25T13:43:29.604Z,9.85
2019-01-25T13:45:59.231Z,9.78
2019-01-25T13:48:28.979Z,9.72
2019-01-25T13:50:58.454Z,9.67
2019-01-25T13:53:27.880Z,9.63
2019-01-25T13:55:57.423Z,9.60
2019-01-25T13:58:26.949Z,9.55
2019-01-25T14:00:56.464Z,9.54
2019-01-25T14:03:27.249Z,9.50
2019-01-25T14:05:56.949Z,9.52
2019-01-25T14:08:26.469Z,9.51
2019-01-25T14:10:56.153Z,9.51
2019-01-25T14:13:25.672Z,9.47
2019-01-25T14:15:55.290Z,9.45
2019-01-25T14:18:24.897Z,9.46
2019-01-25T14:20:54.389Z,9.44
2019-01-25T14:23:23.948Z,9.44
2019-01-25T14:25:53.407Z,9.42
2019-01-25T14:28:22.814Z,9.40
2019-01-25T14:30:52.438Z,9.47
2019-01-25T14:33:21.926Z,9.40
2019-01-25T14:35:51.440Z,9.32
2019-01-25T14:38:20.922Z,9.24
2019-01-25T14:40:51.140Z,9.23
2019-01-25T14:43:20.724Z,9.17
2019-01-25T14:45:50.311Z,9.15
2019-01-25T14:48:19.728Z,9.13
2019-01-25T14:50:49.472Z,9.08
2019-01-25T14:53:19.104Z,9.02
2019-01-25T14:55:48.664Z,9.00
2019-01-25T14:58:18.175Z,9.00
2019-01-25T15:00:47.933Z,9.01
2019-01-25T15:03:17.438Z,8.97
2019-01-25T15:05:47.002Z,8.99
2019-01-25T15:08:16.529Z,8.97
2019-01-25T15:10:46.053Z,8.94
2019-01-25T15:13:15.544Z,8.94
2019-01-25T15:15:45.066Z,8.95
2019-01-25T15:18:14.938Z,8.95
2019-01-25T15:20:44.478Z,8.90
2019-01-25T15:23:13.953Z,8.96
2019-01-25T15:25:43.408Z,8.96
2019-01-25T15:28:12.941Z,8.98
2019-01-25T15:30:42.526Z,8.98
2019-01-25T15:33:12.634Z,8.98
2019-01-25T15:35:42.232Z,8.97
2019-01-25T15:38:11.981Z,8.99
2019-01-25T15:40:41.537Z,9.00
2019-01-25T15:43:11.011Z,8.97
2019-01-25T15:45:40.714Z,8.97
2019-01-25T15:48:10.117Z,8.94
2019-01-25T15:50:39.999Z,8.90
2019-01-25T15:53:09.682Z,8.88
2019-01-25T15:55:39.126Z,8.89
2019-01-25T15:58:08.575Z,8.80
2019-01-25T16:00:38.213Z,8.73
2019-01-25T16:03:07.731Z,8.65
2019-01-25T16:05:37.196Z,8.58
2019-01-25T16:08:06.826Z,8.46
2019-01-25T16:10:36.403Z,8.48
2019-01-25T16:13:06.112Z,8.48
2019-01-25T16:15:35.713Z,8.45
2019-01-25T16:18:05.130Z,8.47
2019-01-25T16:20:34.589Z,8.47
2019-01-25T16:23:04.108Z,8.44
2019-01-25T16:25:35.159Z,8.46
2019-01-25T16:28:04.995Z,8.46
2019-01-25T16:30:39.166Z,8.42
2019-01-25T16:33:08.701Z,8.42
2019-01-25T16:35:38.279Z,8.37
2019-01-25T16:38:08.186Z,8.37
2019-01-25T16:40:37.618Z,8.34
2019-01-25T16:43:09.092Z,8.33
2019-01-25T16:45:40.831Z,8.31
2019-01-25T16:48:10.482Z,8.30
2019-01-25T16:50:40.057Z,8.27
2019-01-25T16:53:11.508Z,8.25
2019-01-25T16:55:40.990Z,8.23
2019-01-25T16:58:10.488Z,8.19
2019-01-25T17:00:42.303Z,8.18
2019-01-25T17:03:11.770Z,8.16
2019-01-25T17:05:41.325Z,8.13
2019-01-25T17:08:11.155Z,8.11
2019-01-25T17:10:41.155Z,8.08
2019-01-25T17:13:10.766Z,8.05
2019-01-25T17:15:40.607Z,8.03
2019-01-25T17:18:10.112Z,8.00
2019-01-25T17:20:39.803Z,7.97
2019-01-25T17:23:09.386Z,7.99
2019-01-25T17:25:38.851Z,7.97
2019-01-25T17:28:09.650Z,7.94
2019-01-25T17:30:40.093Z,7.95
2019-01-25T17:33:09.695Z,7.98
2019-01-25T17:35:39.270Z,7.96
2019-01-25T17:38:09.722Z,8.00
2019-01-25T17:40:46.460Z,7.96
2019-01-25T17:43:13.441Z,7.95
2019-01-25T17:45:42.893Z,7.93
2019-01-25T17:48:12.291Z,7.88
2019-01-25T17:50:41.950Z,7.93
2019-01-25T17:53:11.529Z,7.91
2019-01-25T17:55:41.010Z,7.89
2019-01-25T17:58:10.441Z,7.89
2019-01-25T18:00:58.043Z,7.84
2019-01-25T18:03:27.595Z,7.82
2019-01-25T18:05:57.047Z,7.82
2019-01-25T18:08:26.465Z,7.74
2019-01-25T18:10:55.964Z,7.76
2019-01-25T18:13:25.510Z,7.76
2019-01-25T18:15:54.950Z,7.75
2019-01-25T18:18:24.639Z,7.71
2019-01-25T18:20:54.091Z,7.73
2019-01-25T18:23:23.542Z,7.72
2019-01-25T18:25:57.559Z,7.65
2019-01-25T18:28:31.115Z,7.68
2019-01-25T18:31:04.657Z,7.66
2019-01-25T18:33:34.066Z,7.67
2019-01-25T18:36:03.511Z,7.66
2019-01-25T18:38:33.058Z,7.65
2019-01-25T18:41:02.526Z,7.57
2019-01-25T18:43:31.933Z,7.56
2019-01-25T18:46:01.637Z,7.60
2019-01-25T18:48:31.245Z,7.53
2019-01-25T18:51:00.708Z,7.52
2019-01-25T18:53:30.164Z,7.54
2019-01-25T18:55:59.770Z,7.50
2019-01-25T18:58:29.259Z,7.48
2019-01-25T19:00:58.866Z,7.45
2019-01-25T19:03:28.340Z,7.43
2019-01-25T19:05:57.809Z,7.46
2019-01-25T19:08:27.284Z,7.43
2019-01-25T19:10:56.738Z,7.42
2019-01-25T19:13:26.236Z,7.44
2019-01-25T19:15:55.742Z,7.42
2019-01-25T19:18:25.155Z,7.41
2019-01-25T19:20:54.612Z,7.37
2019-01-25T19:23:24.145Z,7.40
2019-01-25T19:25:53.575Z,7.36
2019-01-25T19:28:22.982Z,7.38
2019-01-25T19:30:52.490Z,7.33
2019-01-25T19:33:21.982Z,7.34
2019-01-25T19:35:51.405Z,7.33
2019-01-25T19:38:22.429Z,7.34
2019-01-25T19:40:51.884Z,7.36
2019-01-25T19:43:21.365Z,7.35
2019-01-25T19:45:50.906Z,7.35
2019-01-25T19:48:20.402Z,7.36
2019-01-25T19:50:49.844Z,7.34
2019-01-25T19:53:19.315Z,7.32
2019-01-25T19:55:48.777Z,7.33
2019-01-25T19:58:19.597Z,7.34
2019-01-25T20:00:49.329Z,7.30
2019-01-25T20:03:18.838Z,7.31
2019-01-25T20:05:48.293Z,7.28
2019-01-25T20:08:17.844Z,7.24
2019-01-25T20:10:47.282Z,7.26
2019-01-25T20:13:16.747Z,7.21
2019-01-25T20:15:46.501Z,7.23
2019-01-25T20:18:15.996Z,7.24
2019-01-25T20:20:45.528Z,7.26
2019-01-25T20:23:15.052Z,7.25
2019-01-25T20:25:44.485Z,7.21
2019-01-25T20:28:13.879Z,7.22
2019-01-25T20:30:49.551Z,7.22
2019-01-25T20:33:15.046Z,7.27
2019-01-25T20:35:44.591Z,7.30
2019-01-25T20:38:14.132Z,7.29
2019-01-25T20:40:43.608Z,7.27
2019-01-25T20:43:13.272Z,7.28
2019-01-25T20:45:42.900Z,7.29
2019-01-25T20:48:12.403Z,7.32
2019-01-25T20:50:41.956Z,7.30
2019-01-25T20:53:12.666Z,7.35
2019-01-25T20:55:42.337Z,7.31
2019-01-25T20:58:11.880Z,7.32
2019-01-25T21:00:41.666Z,7.34
2019-01-25T21:03:13.685Z,7.37
2019-01-25T21:05:43.306Z,7.37
2019-01-25T21:08:13.037Z,7.34
2019-01-25T21:10:42.615Z,7.36
2019-01-25T21:13:12.030Z,7.38
2019-01-25T21:15:41.622Z,7.41
2019-01-25T21:18:11.332Z,7.43
2019-01-25T21:20:43.241Z,7.44
2019-01-25T21:23:12.892Z,7.48
2019-01-25T21:25:42.478Z,7.48
2019-01-25T21:28:12.208Z,7.49
2019-01-25T21:30:41.809Z,7.49
2019-01-25T21:33:11.211Z,7.45
2019-01-25T21:35:40.682Z,7.43
2019-01-25T21:38:10.227Z,7.44
2019-01-25T21:40:39.767Z,7.47
2019-01-25T21:43:09.256Z,7.49
2019-01-25T21:45:43.238Z,7.45
2019-01-25T21:48:17.682Z,7.50
2019-01-25T21:50:48.349Z,7.57
2019-01-25T21:53:17.878Z,7.58
2019-01-25T21:55:47.307Z,7.56
2019-01-25T21:58:16.866Z,7.62
2019-01-25T22:00:46.314Z,7.65
2019-01-25T22:03:15.939Z,7.69
2019-01-25T22:05:45.436Z,7.73
2019-01-25T22:08:14.843Z,7.75
2019-01-25T22:10:48.859Z,7.75
2019-01-25T22:13:18.398Z,7.73
2019-01-25T22:15:51.038Z,7.70
2019-01-25T22:18:19.043Z,7.69
2019-01-25T22:20:48.701Z,7.65
2019-01-25T22:23:18.259Z,7.68
2019-01-25T22:25:47.715Z,7.67
2019-01-25T22:28:17.253Z,7.62
2019-01-25T22:30:46.695Z,7.60
2019-01-25T22:33:16.094Z,7.61
2019-01-25T22:35:45.682Z,7.62
2019-01-25T22:38:15.168Z,7.57
2019-01-25T22:40:44.618Z,7.59
2019-01-25T22:43:14.235Z,7.58
2019-01-25T22:45:43.685Z,7.54
2019-01-25T22:48:13.194Z,7.56
2019-01-25T22:50:42.666Z,7.60
2019-01-25T22:53:12.063Z,7.61
2019-01-25T22:55:41.524Z,7.59
2019-01-25T22:58:11.224Z,7.60
2019-01-25T23:01:04.207Z,7.61
2019-01-25T23:04:00.580Z,7.69
2019-01-25T23:06:46.218Z,7.62
2019-01-25T23:09:28.259Z,7.66
2019-01-25T23:11:57.741Z,7.65
2019-01-25T23:14:27.144Z,7.65
2019-01-25T23:16:56.781Z,7.58
2019-01-25T23:19:26.281Z,7.52
2019-01-25T23:21:55.823Z,7.52
2019-01-25T23:24:25.486Z,7.57
2019-01-25T23:26:54.928Z,7.59
2019-01-25T23:29:24.431Z,7.64
2019-01-25T23:31:53.931Z,7.73
2019-01-25T23:34:23.345Z,7.74
2019-01-25T23:36:52.785Z,7.75
2019-01-25T23:39:22.335Z,7.80
2019-01-25T23:41:51.777Z,7.75
2019-01-25T23:44:21.240Z,7.76
2019-01-25T23:46:50.859Z,7.80
2019-01-25T23:49:20.265Z,7.76
2019-01-25T23:51:49.732Z,7.82
2019-01-25T23:54:19.263Z,7.83
2019-01-25T23:56:48.816Z,7.81
2019-01-25T23:59:18.209Z,7.80
